createdAt,value
2022-11-05T00:01:49.253Z,29.40
2022-11-05T00:04:35.009Z,30.50
2022-11-05T00:07:30.660Z,26.40
2022-11-05T00:10:07.678Z,26.70
2022-11-05T00:12:52.915Z,27.47
2022-11-05T00:15:38.210Z,27.93
2022-11-05T00:18:04.793Z,28.90
2022-11-05T00:20:31.502Z,27.63
2022-11-05T00:23:20.347Z,30.40
2022-11-05T00:25:56.038Z,28.30
2022-11-05T00:28:23.020Z,25.10
2022-11-05T00:30:50.639Z,28.60
2022-11-05T00:33:17.305Z,24.73
2022-11-05T00:35:43.911Z,28.07
2022-11-05T00:38:10.531Z,25.33
2022-11-05T00:40:37.324Z,30.30
2022-11-05T00:43:22.545Z,30.57
2022-11-05T00:45:49.164Z,33.90
2022-11-05T00:48:34.275Z,25.43
2022-11-05T00:51:00.874Z,31.33
2022-11-05T00:53:27.487Z,28.90
2022-11-05T00:55:54.740Z,31.73
2022-11-05T00:58:21.982Z,25.33
2022-11-05T01:00:49.719Z,27.17
2022-11-05T01:03:17.247Z,27.30
2022-11-05T01:05:45.494Z,26.27
2022-11-05T01:08:12.708Z,26.67
2022-11-05T01:10:40.090Z,28.97
2022-11-05T01:13:11.758Z,27.87
2022-11-05T01:15:40.124Z,23.33
2022-11-05T01:18:06.842Z,25.63
2022-11-05T01:20:33.545Z,25.37
2022-11-05T01:23:00.169Z,28.77
2022-11-05T01:25:26.807Z,24.10
2022-11-05T01:27:53.380Z,26.03
2022-11-05T01:30:20.221Z,22.27
2022-11-05T01:32:46.884Z,21.43
2022-11-05T01:35:14.773Z,29.23
2022-11-05T01:37:41.506Z,24.90
2022-11-05T01:40:08.990Z,23.00
2022-11-05T01:42:35.641Z,22.50
2022-11-05T01:45:04.076Z,23.03
2022-11-05T01:47:41.082Z,22.20
2022-11-05T01:50:17.619Z,25.43
2022-11-05T01:52:44.347Z,22.83
2022-11-05T01:55:11.270Z,21.17
2022-11-05T01:57:37.987Z,24.67
2022-11-05T02:00:04.796Z,19.17
2022-11-05T02:02:39.836Z,20.13
2022-11-05T02:05:10.746Z,21.33
2022-11-05T02:07:37.540Z,21.57
2022-11-05T02:10:09.177Z,20.30
2022-11-05T02:12:37.510Z,21.80
2022-11-05T02:15:04.560Z,23.00
2022-11-05T02:17:40.418Z,22.50
2022-11-05T02:20:07.111Z,21.37
2022-11-05T02:22:52.482Z,22.67
2022-11-05T02:25:37.675Z,19.53
2022-11-05T02:28:10.626Z,24.37
2022-11-05T02:30:37.262Z,19.27
2022-11-05T02:33:15.007Z,23.57
2022-11-05T02:36:06.536Z,21.53
2022-11-05T02:38:36.336Z,21.67
2022-11-05T02:41:21.713Z,19.07
2022-11-05T02:43:54.040Z,20.70
2022-11-05T02:46:30.631Z,22.37
2022-11-05T02:48:57.186Z,23.37
2022-11-05T02:51:31.539Z,26.33
2022-11-05T02:54:02.527Z,25.53
2022-11-05T02:56:32.051Z,27.00
2022-11-05T02:58:58.731Z,35.97
2022-11-05T03:01:25.410Z,29.33
2022-11-05T03:03:53.887Z,29.10
2022-11-05T03:06:26.615Z,32.37
2022-11-05T03:09:19.368Z,29.90
2022-11-05T03:12:04.641Z,32.37
2022-11-05T03:14:43.083Z,33.90
2022-11-05T03:17:18.139Z,29.43
2022-11-05T03:19:59.746Z,32.70
2022-11-05T03:22:29.921Z,31.33
2022-11-05T03:25:00.547Z,32.33
2022-11-05T03:27:29.864Z,36.23
2022-11-05T03:30:00.374Z,35.53
2022-11-05T03:32:28.299Z,37.33
2022-11-05T03:35:13.211Z,37.63
2022-11-05T03:37:40.711Z,35.27
2022-11-05T03:40:08.536Z,37.00
2022-11-05T03:42:37.024Z,38.93
2022-11-05T03:45:08.559Z,36.20
2022-11-05T03:47:37.383Z,40.10
2022-11-05T03:50:07.687Z,45.77
2022-11-05T03:52:38.130Z,43.57
2022-11-05T03:55:05.551Z,41.63
2022-11-05T03:57:33.685Z,41.80
2022-11-05T04:00:00.382Z,42.90
2022-11-05T04:02:27.277Z,43.10
2022-11-05T04:04:54.621Z,43.60
2022-11-05T04:07:39.618Z,42.73
2022-11-05T04:10:25.019Z,43.63
2022-11-05T04:13:10.644Z,42.50
2022-11-05T04:15:56.323Z,44.13
2022-11-05T04:18:22.935Z,44.17
2022-11-05T04:21:08.267Z,42.87
2022-11-05T04:23:53.651Z,44.23
2022-11-05T04:26:23.485Z,44.00
2022-11-05T04:29:09.344Z,46.27
2022-11-05T04:31:35.941Z,46.27
2022-11-05T04:34:02.567Z,46.27
2022-11-05T04:36:29.591Z,47.93
2022-11-05T04:38:56.333Z,42.43
2022-11-05T04:41:22.948Z,47.83
2022-11-05T04:43:49.781Z,53.70
2022-11-05T04:46:16.416Z,49.03
2022-11-05T04:48:43.033Z,50.37
2022-11-05T04:51:09.611Z,51.13
2022-11-05T04:53:36.175Z,46.43
2022-11-05T04:56:14.935Z,46.43
2022-11-05T04:58:41.935Z,50.00
2022-11-05T05:01:12.770Z,46.73
2022-11-05T05:03:39.613Z,42.07
2022-11-05T05:06:06.275Z,42.90
2022-11-05T05:08:32.878Z,39.50
2022-11-05T05:11:03.479Z,46.33
2022-11-05T05:13:30.115Z,43.40
2022-11-05T05:15:56.689Z,45.60
2022-11-05T05:18:24.067Z,43.67
2022-11-05T05:21:09.443Z,42.47
2022-11-05T05:23:36.232Z,39.57
2022-11-05T05:26:02.938Z,43.37
2022-11-05T05:28:29.538Z,38.30
2022-11-05T05:30:58.913Z,41.33
2022-11-05T05:33:25.852Z,41.00
2022-11-05T05:35:52.529Z,37.50
2022-11-05T05:38:19.207Z,42.07
2022-11-05T05:40:45.806Z,45.80
2022-11-05T05:43:12.730Z,41.57
2022-11-05T05:45:39.508Z,39.57
2022-11-05T05:48:06.171Z,43.60
2022-11-05T05:50:32.902Z,41.50
2022-11-05T05:53:06.826Z,41.93
2022-11-05T05:55:33.425Z,43.87
2022-11-05T05:57:59.988Z,41.37
2022-11-05T06:00:26.594Z,40.67
2022-11-05T06:02:55.255Z,42.27
2022-11-05T06:05:21.920Z,46.53
2022-11-05T06:07:55.225Z,42.87
2022-11-05T06:10:21.893Z,37.80
2022-11-05T06:12:48.505Z,38.97
2022-11-05T06:15:15.133Z,40.97
2022-11-05T06:17:43.424Z,39.07
2022-11-05T06:20:10.686Z,37.20
2022-11-05T06:22:37.282Z,39.40
2022-11-05T06:25:04.235Z,38.70
2022-11-05T06:27:31.097Z,39.77
2022-11-05T06:29:57.727Z,34.60
2022-11-05T06:32:24.748Z,40.07
2022-11-05T06:34:51.367Z,36.57
2022-11-05T06:37:17.964Z,41.30
2022-11-05T06:39:44.568Z,40.03
2022-11-05T06:42:18.481Z,34.17
2022-11-05T06:44:45.792Z,40.07
2022-11-05T06:47:12.455Z,35.60
2022-11-05T06:49:39.114Z,43.13
2022-11-05T06:52:05.773Z,37.37
2022-11-05T06:54:32.420Z,38.40
2022-11-05T06:56:59.015Z,43.23
2022-11-05T06:59:25.587Z,42.70
2022-11-05T07:01:52.196Z,35.03
2022-11-05T07:04:18.846Z,39.07
2022-11-05T07:06:45.443Z,35.20
2022-11-05T07:09:12.038Z,38.10
2022-11-05T07:11:38.679Z,35.87
2022-11-05T07:14:05.277Z,36.67
2022-11-05T07:16:31.928Z,37.43
2022-11-05T07:18:58.562Z,36.67
2022-11-05T07:21:25.170Z,33.97
2022-11-05T07:23:51.777Z,34.23
2022-11-05T07:26:18.583Z,36.33
2022-11-05T07:28:45.490Z,35.23
2022-11-05T07:31:12.091Z,32.20
2022-11-05T07:33:38.690Z,31.57
2022-11-05T07:39:48.564Z,38.63
2022-11-05T07:42:15.167Z,32.53
2022-11-05T07:44:41.775Z,38.80
2022-11-05T07:47:09.743Z,33.60
2022-11-05T07:49:36.251Z,34.23
2022-11-05T07:52:02.875Z,33.07
2022-11-05T07:54:29.438Z,35.97
2022-11-05T07:56:55.961Z,38.20
2022-11-05T07:59:22.481Z,33.97
2022-11-05T08:01:49.216Z,35.97
2022-11-05T08:04:15.993Z,34.03
2022-11-05T08:06:42.556Z,34.70
2022-11-05T08:09:09.367Z,35.97
2022-11-05T08:11:35.963Z,29.70
2022-11-05T08:14:02.534Z,31.53
2022-11-05T08:16:29.051Z,34.07
2022-11-05T08:18:55.672Z,28.97
2022-11-05T08:21:22.171Z,60.57
2022-11-05T08:23:48.780Z,55.77
2022-11-05T08:26:15.281Z,30.37
2022-11-05T08:28:41.820Z,36.43
2022-11-05T08:31:08.360Z,36.70
2022-11-05T08:33:34.975Z,33.17
2022-11-05T08:36:02.457Z,28.73
2022-11-05T08:38:28.962Z,28.53
2022-11-05T08:40:58.927Z,25.37
2022-11-05T08:43:25.615Z,26.10
2022-11-05T08:45:52.260Z,24.53
2022-11-05T08:48:19.471Z,27.03
2022-11-05T08:50:47.271Z,27.47
2022-11-05T08:53:14.424Z,26.50
2022-11-05T08:55:41.267Z,27.73
2022-11-05T08:58:12.472Z,24.40
2022-11-05T09:00:39.864Z,24.33
2022-11-05T09:03:07.739Z,30.13
2022-11-05T09:05:37.859Z,27.00
2022-11-05T09:08:05.418Z,24.77
2022-11-05T09:10:31.967Z,24.10
2022-11-05T09:12:58.537Z,23.37
2022-11-05T09:15:25.279Z,23.53
2022-11-05T09:17:51.834Z,28.93
2022-11-05T09:20:18.521Z,25.17
2022-11-05T09:22:46.262Z,22.57
2022-11-05T09:25:12.913Z,19.07
2022-11-05T09:27:39.519Z,21.03
2022-11-05T09:30:06.454Z,26.43
2022-11-05T09:32:33.153Z,24.60
2022-11-05T09:35:01.222Z,21.23
2022-11-05T09:37:28.465Z,21.43
2022-11-05T09:39:55.677Z,19.43
2022-11-05T09:42:24.769Z,18.83
2022-11-05T09:44:53.987Z,17.10
2022-11-05T09:47:24.784Z,18.30
2022-11-05T09:49:52.414Z,17.33
2022-11-05T09:52:23.864Z,15.87
2022-11-05T09:54:50.762Z,18.13
2022-11-05T09:57:19.500Z,17.07
2022-11-05T09:59:48.732Z,14.33
2022-11-05T10:02:24.087Z,14.03
2022-11-05T10:04:52.989Z,13.57
2022-11-05T10:07:22.756Z,12.90
2022-11-05T10:09:52.125Z,11.90
2022-11-05T10:12:51.281Z,11.23
2022-11-05T10:15:26.735Z,12.90
2022-11-05T10:17:56.349Z,11.47
2022-11-05T10:20:23.630Z,11.00
2022-11-05T10:22:58.529Z,12.17
2022-11-05T10:25:27.582Z,9.83
2022-11-05T10:27:55.526Z,12.97
2022-11-05T10:30:22.212Z,12.20
2022-11-05T10:32:49.141Z,11.27
2022-11-05T10:35:19.176Z,9.50
2022-11-05T10:37:46.763Z,8.87
2022-11-05T10:40:28.450Z,11.73
2022-11-05T10:43:00.911Z,10.23
2022-11-05T10:45:39.389Z,10.03
2022-11-05T10:48:24.601Z,12.13
2022-11-05T10:50:51.195Z,6.77
2022-11-05T10:53:27.138Z,7.97
2022-11-05T10:55:54.681Z,8.90
2022-11-05T10:58:23.047Z,8.03
2022-11-05T11:00:49.666Z,9.17
2022-11-05T11:03:35.221Z,7.77
2022-11-05T11:06:03.440Z,9.20
2022-11-05T11:08:30.742Z,6.70
2022-11-05T11:10:58.606Z,9.50
2022-11-05T11:13:26.355Z,9.43
2022-11-05T11:15:53.359Z,6.50
2022-11-05T11:18:26.016Z,6.87
2022-11-05T11:20:52.679Z,7.87
2022-11-05T11:23:19.252Z,7.63
2022-11-05T11:25:50.543Z,6.67
2022-11-05T11:28:36.401Z,9.23
2022-11-05T11:31:11.136Z,7.50
2022-11-05T11:33:38.790Z,8.93
2022-11-05T11:36:06.377Z,9.00
2022-11-05T11:38:34.349Z,9.23
2022-11-05T11:41:07.001Z,5.33
2022-11-05T11:43:35.262Z,8.33
2022-11-05T11:46:07.751Z,6.53
2022-11-05T11:48:38.003Z,9.07
2022-11-05T11:51:16.689Z,7.17
2022-11-05T11:53:43.394Z,7.07
2022-11-05T11:56:17.149Z,5.67
2022-11-05T11:58:53.721Z,10.10
2022-11-05T12:01:46.459Z,8.73
2022-11-05T12:04:19.705Z,6.90
2022-11-05T12:06:49.362Z,9.87
2022-11-05T12:09:15.978Z,6.63
2022-11-05T12:11:45.529Z,5.83
2022-11-05T12:14:30.614Z,6.20
2022-11-05T12:17:03.010Z,4.93
2022-11-05T12:19:44.934Z,5.40
2022-11-05T12:22:14.468Z,3.97
2022-11-05T12:24:50.333Z,6.37
2022-11-05T12:27:32.539Z,5.73
2022-11-05T12:30:02.511Z,4.43
2022-11-05T12:32:40.070Z,6.00
2022-11-05T12:35:15.853Z,5.27
2022-11-05T12:38:02.055Z,4.43
2022-11-05T12:40:31.518Z,3.83
2022-11-05T12:43:16.986Z,3.07
2022-11-05T12:45:46.793Z,3.10
2022-11-05T12:48:37.115Z,2.73
2022-11-05T12:51:28.554Z,4.03
2022-11-05T12:53:59.268Z,2.27
2022-11-05T12:56:30.511Z,4.00
2022-11-05T12:59:01.118Z,3.47
2022-11-05T13:01:33.678Z,3.67
2022-11-05T13:04:08.733Z,3.33
2022-11-05T13:06:40.419Z,1.83
2022-11-05T13:09:11.394Z,3.53
2022-11-05T13:11:41.957Z,4.70
2022-11-05T13:14:34.779Z,3.93
2022-11-05T13:17:04.249Z,3.13
2022-11-05T13:19:52.543Z,2.53
2022-11-05T13:22:29.942Z,3.20
2022-11-05T13:24:58.528Z,1.77
2022-11-05T13:27:34.398Z,3.53
2022-11-05T13:30:03.646Z,1.70
2022-11-05T13:32:41.298Z,3.23
2022-11-05T13:35:23.724Z,3.67
2022-11-05T13:38:15.496Z,1.73
2022-11-05T13:41:00.966Z,2.30
2022-11-05T13:44:00.094Z,4.00
2022-11-05T13:46:48.439Z,3.00
2022-11-05T13:49:23.493Z,2.63
2022-11-05T13:52:10.358Z,3.87
2022-11-05T13:54:49.761Z,4.50
2022-11-05T13:57:37.300Z,2.73
2022-11-05T14:00:06.915Z,4.10
2022-11-05T14:02:56.576Z,4.53
2022-11-05T14:05:34.723Z,4.00
2022-11-05T14:08:07.709Z,4.40
2022-11-05T14:10:37.041Z,6.13
2022-11-05T14:13:08.297Z,3.90
2022-11-05T14:15:35.110Z,2.27
2022-11-05T14:18:03.170Z,1.83
2022-11-05T14:20:32.856Z,1.87
2022-11-05T14:23:17.683Z,4.00
2022-11-05T14:25:44.296Z,3.77
2022-11-05T14:28:29.746Z,1.40
2022-11-05T14:30:56.429Z,2.43
2022-11-05T14:33:26.066Z,3.27
2022-11-05T14:35:53.737Z,3.97
2022-11-05T14:38:22.218Z,2.73
2022-11-05T14:40:48.961Z,3.87
2022-11-05T14:43:15.579Z,5.70
2022-11-05T14:45:52.638Z,2.23
2022-11-05T14:48:22.211Z,2.30
2022-11-05T14:50:49.398Z,2.93
2022-11-05T14:53:35.698Z,2.97
2022-11-05T14:56:04.536Z,3.47
2022-11-05T14:58:32.754Z,4.23
2022-11-05T15:01:00.413Z,1.93
2022-11-05T15:03:28.616Z,4.53
2022-11-05T15:06:13.881Z,1.53
2022-11-05T15:08:46.505Z,5.20
2022-11-05T15:11:16.093Z,4.40
2022-11-05T15:14:02.909Z,5.10
2022-11-05T15:16:48.599Z,2.17
2022-11-05T15:19:21.261Z,4.70
2022-11-05T15:21:47.893Z,5.53
2022-11-05T15:24:15.699Z,3.13
2022-11-05T15:26:48.344Z,3.77
2022-11-05T15:29:19.654Z,4.33
2022-11-05T15:31:46.587Z,5.00
2022-11-05T15:34:17.770Z,1.90
2022-11-05T15:36:48.592Z,4.27
2022-11-05T15:39:29.956Z,3.97
2022-11-05T15:41:57.550Z,3.07
2022-11-05T15:44:43.612Z,4.70
2022-11-05T15:47:21.061Z,3.73
2022-11-05T15:50:14.484Z,1.73
2022-11-05T15:52:48.987Z,5.73
2022-11-05T15:55:20.272Z,6.57
2022-11-05T15:57:51.104Z,3.70
2022-11-05T16:00:18.227Z,7.53
2022-11-05T16:02:50.292Z,4.30
2022-11-05T16:05:17.101Z,4.17
2022-11-05T16:07:44.486Z,4.10
2022-11-05T16:10:24.313Z,4.13
2022-11-05T16:12:50.909Z,6.80
2022-11-05T16:15:20.152Z,6.07
2022-11-05T16:17:50.038Z,3.83
2022-11-05T16:20:22.696Z,4.20
2022-11-05T16:22:51.301Z,3.73
2022-11-05T16:25:41.307Z,6.93
2022-11-05T16:28:24.634Z,5.00
2022-11-05T16:30:52.589Z,6.50
2022-11-05T16:33:19.183Z,6.13
2022-11-05T16:35:49.658Z,7.37
2022-11-05T16:38:17.080Z,5.70
2022-11-05T16:40:43.927Z,10.40
2022-11-05T16:43:24.552Z,6.87
2022-11-05T16:45:53.818Z,9.43
2022-11-05T16:48:20.771Z,7.63
2022-11-05T16:50:47.414Z,10.40
2022-11-05T16:53:14.099Z,6.97
2022-11-05T16:55:41.835Z,6.67
2022-11-05T16:58:18.109Z,6.10
2022-11-05T17:00:44.966Z,6.70
2022-11-05T17:03:11.803Z,8.00
2022-11-05T17:05:38.387Z,6.43
2022-11-05T17:08:05.254Z,6.30
2022-11-05T17:10:31.947Z,7.60
2022-11-05T17:12:58.567Z,6.63
2022-11-05T17:15:31.152Z,5.87
2022-11-05T17:17:58.604Z,5.90
2022-11-05T17:20:33.751Z,8.87
2022-11-05T17:23:04.166Z,10.37
2022-11-05T17:25:31.169Z,7.50
2022-11-05T17:27:58.110Z,7.97
2022-11-05T17:30:25.056Z,6.37
2022-11-05T17:32:51.782Z,7.13
2022-11-05T17:35:18.879Z,8.87
2022-11-05T17:37:45.524Z,8.83
2022-11-05T17:40:16.329Z,8.17
2022-11-05T17:42:43.327Z,8.17
2022-11-05T17:45:10.854Z,7.97
2022-11-05T17:47:37.510Z,6.03
2022-11-05T17:50:04.548Z,9.57
2022-11-05T17:52:31.274Z,5.80
2022-11-05T17:54:57.913Z,6.40
2022-11-05T17:57:24.503Z,7.90
2022-11-05T17:59:51.102Z,9.30
2022-11-05T18:02:17.821Z,8.00
2022-11-05T18:04:44.477Z,11.87
2022-11-05T18:07:11.037Z,12.03
2022-11-05T18:09:37.790Z,9.07
2022-11-05T18:12:04.545Z,7.63
2022-11-05T18:14:31.210Z,4.87
2022-11-05T18:17:00.393Z,6.60
2022-11-05T18:19:27.825Z,8.07
2022-11-05T18:21:54.705Z,8.20
2022-11-05T18:24:21.875Z,9.77
2022-11-05T18:26:49.020Z,8.37
2022-11-05T18:29:15.670Z,9.27
2022-11-05T18:31:42.306Z,7.73
2022-11-05T18:34:10.429Z,9.50
2022-11-05T18:36:37.452Z,8.27
2022-11-05T18:39:04.523Z,8.83
2022-11-05T18:41:32.079Z,7.50
2022-11-05T18:44:00.183Z,9.47
2022-11-05T18:46:55.817Z,9.60
2022-11-05T18:49:14.171Z,8.83
2022-11-05T18:51:41.102Z,9.53
2022-11-05T18:54:08.612Z,11.00
2022-11-05T18:56:35.820Z,10.37
2022-11-05T18:59:34.743Z,10.37
2022-11-05T19:01:49.276Z,8.30
2022-11-05T19:04:16.007Z,7.30
2022-11-05T19:06:42.708Z,11.63
2022-11-05T19:09:12.056Z,8.97
2022-11-05T19:11:39.844Z,9.13
2022-11-05T19:14:07.260Z,6.10
2022-11-05T19:16:34.229Z,5.70
2022-11-05T19:19:01.919Z,7.80
2022-11-05T19:21:28.781Z,6.30
2022-11-05T19:23:56.734Z,5.50
2022-11-05T19:26:28.616Z,9.27
2022-11-05T19:28:59.919Z,9.40
2022-11-05T19:31:26.883Z,9.17
2022-11-05T19:33:54.224Z,7.83
2022-11-05T19:36:21.693Z,7.80
2022-11-05T19:38:49.692Z,9.23
2022-11-05T19:41:18.353Z,9.47
2022-11-05T19:43:45.414Z,8.33
2022-11-05T19:46:14.405Z,4.93
2022-11-05T19:48:41.465Z,6.93
2022-11-05T19:51:10.982Z,10.20
2022-11-05T19:53:38.570Z,4.93
2022-11-05T19:56:09.448Z,6.27
2022-11-05T19:58:36.036Z,8.03
2022-11-05T20:01:02.705Z,5.60
2022-11-05T20:03:29.587Z,6.27
2022-11-05T20:06:01.340Z,5.70
2022-11-05T20:08:27.897Z,4.37
2022-11-05T20:10:55.092Z,4.10
2022-11-05T20:13:22.078Z,4.80
2022-11-05T20:15:48.663Z,6.23
2022-11-05T20:18:16.783Z,3.87
2022-11-05T20:20:44.216Z,7.23
2022-11-05T20:23:10.855Z,7.20
2022-11-05T20:25:37.496Z,5.23
2022-11-05T20:28:04.518Z,5.37
2022-11-05T20:30:31.135Z,4.67
2022-11-05T20:32:57.972Z,4.20
2022-11-05T20:35:24.757Z,5.00
2022-11-05T20:37:54.138Z,3.57
2022-11-05T20:40:21.097Z,6.53
2022-11-05T20:42:47.767Z,6.63
2022-11-05T20:45:14.421Z,8.23
2022-11-05T20:47:41.158Z,8.73
2022-11-05T20:50:08.289Z,6.60
2022-11-05T20:52:34.982Z,4.67
2022-11-05T20:55:02.369Z,3.13
2022-11-05T20:57:29.096Z,7.40
2022-11-05T20:59:55.918Z,6.87
2022-11-05T21:02:22.756Z,6.07
2022-11-05T21:04:49.520Z,4.90
2022-11-05T21:07:16.171Z,4.97
2022-11-05T21:09:42.734Z,3.50
2022-11-05T21:12:12.052Z,7.33
2022-11-05T21:14:42.715Z,3.90
2022-11-05T21:17:11.534Z,8.13
2022-11-05T21:19:38.130Z,7.97
2022-11-05T21:22:05.474Z,4.40
2022-11-05T21:24:32.769Z,5.40
2022-11-05T21:26:59.455Z,16.73
2022-11-05T21:29:26.149Z,9.23
2022-11-05T21:31:52.715Z,4.37
2022-11-05T21:34:19.931Z,5.20
2022-11-05T21:36:47.466Z,5.23
2022-11-05T21:39:14.122Z,6.33
2022-11-05T21:41:40.842Z,3.93
2022-11-05T21:44:07.394Z,6.27
2022-11-05T21:46:34.123Z,7.23
2022-11-05T21:49:00.727Z,6.00
2022-11-05T21:51:45.954Z,7.97
2022-11-05T21:54:31.239Z,5.57
2022-11-05T21:57:16.537Z,4.87
2022-11-05T21:59:49.165Z,6.13
2022-11-05T22:02:17.293Z,5.37
2022-11-05T22:04:46.431Z,5.80
2022-11-05T22:07:14.816Z,8.73
2022-11-05T22:09:41.502Z,7.67
2022-11-05T22:12:10.154Z,6.30
2022-11-05T22:14:37.219Z,7.70
2022-11-05T22:17:04.484Z,6.00
2022-11-05T22:19:31.161Z,4.27
2022-11-05T22:21:57.765Z,6.37
2022-11-05T22:24:24.694Z,7.47
2022-11-05T22:26:51.261Z,8.03
2022-11-05T22:29:17.960Z,6.87
2022-11-05T22:31:45.159Z,5.40
2022-11-05T22:34:11.815Z,3.97
2022-11-05T22:36:38.707Z,5.80
2022-11-05T22:39:05.987Z,6.77
2022-11-05T22:41:32.859Z,6.40
2022-11-05T22:43:59.445Z,4.87
2022-11-05T22:46:26.814Z,6.00
2022-11-05T22:48:53.486Z,6.53
2022-11-05T22:51:24.770Z,4.97
2022-11-05T22:53:51.501Z,4.60
2022-11-05T22:56:21.317Z,7.93
2022-11-05T22:58:48.337Z,5.40
2022-11-05T23:01:15.744Z,3.23
2022-11-05T23:03:43.554Z,5.40
2022-11-05T23:06:39.050Z,4.40
2022-11-05T23:09:25.891Z,5.73
2022-11-05T23:11:53.305Z,2.63
2022-11-05T23:14:20.250Z,7.03
2022-11-05T23:17:05.804Z,4.53
2022-11-05T23:19:51.260Z,4.30
2022-11-05T23:22:40.746Z,4.73
2022-11-05T23:25:09.266Z,6.03
2022-11-05T23:27:37.064Z,6.83
2022-11-05T23:30:07.017Z,7.70
2022-11-05T23:32:34.373Z,4.27
2022-11-05T23:35:01.232Z,6.50
2022-11-05T23:37:48.171Z,13.07
2022-11-05T23:40:16.357Z,5.33
2022-11-05T23:43:02.107Z,4.43
2022-11-05T23:45:47.392Z,7.50
2022-11-05T23:48:18.522Z,3.97
2022-11-05T23:50:47.009Z,4.90
2022-11-05T23:53:13.912Z,3.70
2022-11-05T23:55:41.095Z,4.57
2022-11-05T23:58:08.212Z,3.90
